Time;durP1;ratioP1;P1;durP2;ratioP2;P2;SDS_P1;SDS_P2;PMS_P1;PMS_P2;Temp;Humidity;BMP_temperature;BMP_pressure;BME280_temperature;BME280_humidity;BME280_pressure;Samples;Min_cycle;Max_cycle;Signal;HPM_P1;HPM_P2
2023/10/31 00:02:52;;;;;;;16.65;8.90;;;;;;;;;;12635430;23;20035;-69
2023/10/31 00:07:48;;;;;;;9.68;7.88;;;;;;;;;;12635134;23;20052;-69
2023/10/31 00:12:44;;;;;;;9.77;8.52;;;;;;;;;;12635167;23;20063;-69
2023/10/31 00:17:41;;;;;;;10.75;7.35;;;;;;;;;;12635330;23;20046;-69
2023/10/31 00:22:37;;;;;;;11.70;8.02;;;;;;;;;;12635395;23;20028;-69
2023/10/31 00:27:33;;;;;;;12.13;8.30;;;;;;;;;;12630804;23;20016;-67
2023/10/31 00:32:30;;;;;;;11.40;8.02;;;;;;;;;;12602590;23;20335;-69
2023/10/31 00:37:27;;;;;;;8.55;7.65;;;;;;;;;;12634792;23;20032;-69
2023/10/31 00:42:23;;;;;;;11.48;8.85;;;;;;;;;;12633804;23;20028;-69
2023/10/31 00:47:20;;;;;;;9.43;8.35;;;;;;;;;;12635348;23;20020;-69
2023/10/31 00:52:16;;;;;;;11.77;7.45;;;;;;;;;;12634711;23;20029;-69
2023/10/31 00:57:13;;;;;;;12.73;8.75;;;;;;;;;;12634711;23;20056;-69
2023/10/31 01:02:09;;;;;;;15.50;8.85;;;;;;;;;;12634779;23;20024;-69
2023/10/31 01:07:05;;;;;;;8.60;7.75;;;;;;;;;;12634573;23;20104;-69
2023/10/31 01:12:02;;;;;;;8.75;7.70;;;;;;;;;;12631295;23;20607;-70
2023/10/31 01:16:58;;;;;;;8.57;7.72;;;;;;;;;;12634154;23;20401;-69
2023/10/31 01:21:54;;;;;;;10.60;8.57;;;;;;;;;;12633676;23;20059;-69
2023/10/31 01:26:51;;;;;;;10.43;8.65;;;;;;;;;;12633624;23;20027;-69
2023/10/31 01:31:47;;;;;;;10.45;9.38;;;;;;;;;;12623157;23;20028;-69
2023/10/31 01:36:56;;;;;;;14.82;9.80;;;;;;;;;;12634522;23;20031;-69
2023/10/31 01:41:54;;;;;;;16.67;11.27;;;;;;;;;;12633737;23;20454;-69
2023/10/31 01:46:50;;;;;;;12.82;10.45;;;;;;;;;;12634281;23;20083;-71
2023/10/31 01:51:47;;;;;;;13.30;11.85;;;;;;;;;;12638004;23;20102;-70
2023/10/31 01:56:44;;;;;;;13.77;12.45;;;;;;;;;;12638277;23;20024;-71
2023/10/31 02:01:40;;;;;;;14.88;13.02;;;;;;;;;;12637420;23;20219;-70
2023/10/31 02:06:37;;;;;;;13.25;11.93;;;;;;;;;;12635038;23;20027;-70
2023/10/31 02:11:33;;;;;;;13.35;12.15;;;;;;;;;;12637514;23;20032;-70
2023/10/31 02:16:29;;;;;;;13.48;12.27;;;;;;;;;;12612102;23;20028;-68
2023/10/31 02:21:27;;;;;;;13.68;12.27;;;;;;;;;;12636627;23;20028;-69
2023/10/31 02:26:23;;;;;;;13.25;11.88;;;;;;;;;;12636880;23;20025;-68
2023/10/31 02:31:20;;;;;;;13.48;12.23;;;;;;;;;;12637166;23;20031;-70
2023/10/31 02:36:16;;;;;;;12.30;11.30;;;;;;;;;;12632207;23;20743;-69
2023/10/31 02:41:13;;;;;;;11.60;10.52;;;;;;;;;;12635270;23;20044;-68
2023/10/31 02:46:12;;;;;;;12.63;11.27;;;;;;;;;;12632188;23;20135;-68
2023/10/31 02:51:08;;;;;;;11.95;10.68;;;;;;;;;;12636390;23;20025;-69
2023/10/31 02:56:05;;;;;;;12.27;11.20;;;;;;;;;;12636519;23;20028;-69
2023/10/31 03:01:01;;;;;;;12.00;10.80;;;;;;;;;;12637231;23;20020;-70
2023/10/31 03:05:57;;;;;;;11.52;10.52;;;;;;;;;;12636874;23;20036;-70
2023/10/31 03:10:53;;;;;;;11.75;10.55;;;;;;;;;;12635063;23;20036;-71
2023/10/31 03:15:50;;;;;;;12.25;10.80;;;;;;;;;;12637012;23;20016;-71
2023/10/31 03:20:46;;;;;;;12.23;11.13;;;;;;;;;;12635169;23;20507;-71
2023/10/31 03:25:43;;;;;;;12.18;10.98;;;;;;;;;;12633343;23;20035;-69
2023/10/31 03:30:39;;;;;;;12.52;11.25;;;;;;;;;;12636159;23;20048;-69
2023/10/31 03:35:36;;;;;;;11.68;10.57;;;;;;;;;;12630655;23;20795;-69
2023/10/31 03:40:32;;;;;;;11.75;10.60;;;;;;;;;;12633262;23;20094;-68
2023/10/31 03:45:29;;;;;;;11.35;10.35;;;;;;;;;;12635256;23;20024;-69
2023/10/31 03:50:26;;;;;;;11.50;9.85;;;;;;;;;;12629955;23;20027;-69
2023/10/31 03:55:22;;;;;;;10.40;9.40;;;;;;;;;;12634290;23;20454;-68
2023/10/31 04:00:19;;;;;;;12.23;10.73;;;;;;;;;;12634757;23;20350;-69
2023/10/31 04:05:15;;;;;;;11.38;10.18;;;;;;;;;;12635674;23;20028;-71
2023/10/31 04:10:11;;;;;;;11.05;9.95;;;;;;;;;;12634142;23;20491;-69
2023/10/31 04:15:08;;;;;;;11.60;10.43;;;;;;;;;;12634177;23;20272;-69
2023/10/31 04:20:05;;;;;;;12.52;10.82;;;;;;;;;;12635292;23;20024;-68
2023/10/31 04:25:01;;;;;;;12.70;9.77;;;;;;;;;;12636307;23;20052;-68
2023/10/31 04:29:58;;;;;;;15.93;12.00;;;;;;;;;;12636270;23;20016;-71
2023/10/31 04:34:54;;;;;;;11.98;10.90;;;;;;;;;;12635233;23;20055;-70
2023/10/31 04:39:51;;;;;;;13.90;11.50;;;;;;;;;;12629638;23;20035;-69
2023/10/31 04:44:47;;;;;;;12.25;11.07;;;;;;;;;;12635302;23;20025;-70
2023/10/31 04:49:43;;;;;;;12.32;11.20;;;;;;;;;;12635149;23;20398;-68
2023/10/31 04:54:40;;;;;;;11.82;10.63;;;;;;;;;;12635931;23;20024;-68
2023/10/31 04:59:37;;;;;;;15.30;11.93;;;;;;;;;;12629765;23;20031;-69
2023/10/31 05:04:33;;;;;;;11.40;10.40;;;;;;;;;;12635861;23;20024;-69
2023/10/31 05:09:30;;;;;;;12.60;11.32;;;;;;;;;;12635624;23;20024;-67
2023/10/31 05:14:26;;;;;;;12.07;10.93;;;;;;;;;;12635451;23;20034;-67
2023/10/31 05:19:23;;;;;;;12.13;10.88;;;;;;;;;;12608819;23;20032;-69
2023/10/31 05:24:19;;;;;;;12.32;11.13;;;;;;;;;;12637729;23;20571;-71
2023/10/31 05:29:15;;;;;;;13.40;12.10;;;;;;;;;;12638147;23;20397;-70
2023/10/31 05:34:11;;;;;;;14.00;12.70;;;;;;;;;;12638888;23;20104;-70
2023/10/31 05:39:08;;;;;;;14.10;12.00;;;;;;;;;;12638792;23;20498;-70
2023/10/31 05:44:04;;;;;;;12.63;11.30;;;;;;;;;;12633281;23;20021;-68
2023/10/31 05:49:01;;;;;;;15.77;12.10;;;;;;;;;;12638095;23;20020;-68
2023/10/31 05:53:57;;;;;;;14.77;13.35;;;;;;;;;;12639019;23;20455;-69
2023/10/31 05:58:53;;;;;;;15.05;12.63;;;;;;;;;;12638402;23;20103;-72
2023/10/31 06:03:49;;;;;;;15.55;13.95;;;;;;;;;;12638304;23;20056;-69
2023/10/31 06:08:46;;;;;;;15.32;13.73;;;;;;;;;;12638008;23;20024;-70
2023/10/31 06:13:42;;;;;;;15.75;13.75;;;;;;;;;;12638749;23;20034;-70
2023/10/31 06:18:40;;;;;;;16.00;14.40;;;;;;;;;;12632899;23;20087;-70
2023/10/31 06:23:37;;;;;;;15.45;13.88;;;;;;;;;;12637460;23;20017;-70
2023/10/31 06:28:35;;;;;;;16.98;15.35;;;;;;;;;;12637030;23;20020;-69
2023/10/31 06:33:38;;;;;;;16.70;15.00;;;;;;;;;;12636060;23;20056;-69
2023/10/31 06:38:34;;;;;;;15.18;13.68;;;;;;;;;;12636169;23;20028;-71
2023/10/31 06:43:31;;;;;;;16.98;15.07;;;;;;;;;;12630949;23;20466;-69
2023/10/31 06:48:30;;;;;;;20.13;15.63;;;;;;;;;;12637093;23;20028;-71
2023/10/31 06:53:26;;;;;;;16.08;14.50;;;;;;;;;;12637073;23;20028;-68
2023/10/31 06:58:23;;;;;;;18.38;16.48;;;;;;;;;;12636682;23;20497;-68
2023/10/31 07:03:19;;;;;;;17.95;15.70;;;;;;;;;;12635927;23;20082;-69
2023/10/31 07:08:16;;;;;;;16.02;14.50;;;;;;;;;;12636391;23;20477;-68
2023/10/31 07:13:12;;;;;;;15.82;14.13;;;;;;;;;;12608739;23;20039;-69
2023/10/31 07:18:09;;;;;;;11.75;10.50;;;;;;;;;;12636402;23;20411;-71
2023/10/31 07:23:05;;;;;;;8.45;7.72;;;;;;;;;;12636270;23;20025;-70
2023/10/31 07:28:02;;;;;;;10.30;8.80;;;;;;;;;;12610220;23;20695;-70
2023/10/31 07:32:58;;;;;;;11.05;9.95;;;;;;;;;;12634174;23;20024;-71
2023/10/31 07:37:55;;;;;;;12.75;11.55;;;;;;;;;;12629507;23;20028;-70
2023/10/31 07:42:51;;;;;;;15.32;13.93;;;;;;;;;;12635225;23;20020;-71
2023/10/31 07:47:47;;;;;;;16.85;15.15;;;;;;;;;;12602018;23;20111;-71
2023/10/31 07:52:46;;;;;;;14.50;13.10;;;;;;;;;;12633994;23;20035;-74
2023/10/31 07:57:42;;;;;;;13.75;12.43;;;;;;;;;;12634670;23;20079;-73
2023/10/31 08:02:38;;;;;;;11.50;10.30;;;;;;;;;;12633879;23;20020;-74
2023/10/31 08:07:35;;;;;;;9.90;8.88;;;;;;;;;;12635720;23;20536;-72
2023/10/31 08:12:31;;;;;;;7.22;6.50;;;;;;;;;;12634245;23;20391;-72
2023/10/31 08:17:29;;;;;;;7.00;6.40;;;;;;;;;;12634494;23;20400;-72
2023/10/31 08:22:25;;;;;;;5.28;4.88;;;;;;;;;;12633604;23;20020;-74
2023/10/31 08:27:21;;;;;;;5.68;5.18;;;;;;;;;;12633882;23;20362;-73
2023/10/31 08:32:18;;;;;;;5.40;5.00;;;;;;;;;;12634806;23;20525;-74
2023/10/31 08:37:14;;;;;;;5.30;4.90;;;;;;;;;;12608456;23;20024;-75
2023/10/31 08:42:11;;;;;;;5.32;4.93;;;;;;;;;;12633914;23;20016;-73
2023/10/31 08:47:07;;;;;;;5.60;5.20;;;;;;;;;;12627913;23;20417;-72
2023/10/31 08:52:04;;;;;;;5.22;4.82;;;;;;;;;;12633015;23;20048;-73
2023/10/31 08:57:00;;;;;;;5.13;4.72;;;;;;;;;;12632567;23;20082;-72
2023/10/31 09:01:56;;;;;;;5.20;4.80;;;;;;;;;;12634337;23;20024;-72
2023/10/31 09:06:53;;;;;;;5.68;5.18;;;;;;;;;;12631297;23;20024;-72
2023/10/31 09:11:49;;;;;;;5.20;4.80;;;;;;;;;;12633361;23;20024;-72
2023/10/31 09:16:46;;;;;;;4.85;4.45;;;;;;;;;;12635356;23;20025;-72
2023/10/31 09:21:42;;;;;;;4.97;4.57;;;;;;;;;;12634149;23;20029;-72
2023/10/31 09:26:41;;;;;;;5.25;4.60;;;;;;;;;;12634273;23;20478;-72
2023/10/31 09:31:38;;;;;;;4.00;3.70;;;;;;;;;;12608116;23;20081;-72
2023/10/31 09:36:34;;;;;;;3.42;3.13;;;;;;;;;;12607169;23;20095;-70
2023/10/31 09:41:32;;;;;;;3.03;2.33;;;;;;;;;;12633308;23;20112;-71
2023/10/31 09:46:28;;;;;;;2.72;2.30;;;;;;;;;;12607774;23;20024;-71
2023/10/31 09:51:26;;;;;;;3.30;2.53;;;;;;;;;;12622112;23;20036;-70
2023/10/31 09:56:22;;;;;;;2.90;2.60;;;;;;;;;;12634839;23;20032;-71
2023/10/31 10:01:19;;;;;;;3.00;2.70;;;;;;;;;;12634222;23;20374;-71
2023/10/31 10:06:15;;;;;;;2.92;2.63;;;;;;;;;;12634348;23;20025;-71
2023/10/31 10:11:11;;;;;;;2.80;2.60;;;;;;;;;;12636211;23;20025;-72
2023/10/31 10:16:09;;;;;;;4.55;2.35;;;;;;;;;;12637774;23;20033;-72
2023/10/31 10:21:06;;;;;;;2.90;2.60;;;;;;;;;;12637400;23;20458;-72
2023/10/31 10:26:03;;;;;;;4.22;2.90;;;;;;;;;;12637414;23;20478;-71
2023/10/31 10:31:00;;;;;;;3.40;3.10;;;;;;;;;;12637682;23;20028;-72
2023/10/31 10:35:59;;;;;;;3.33;3.03;;;;;;;;;;12607931;23;20017;-72
2023/10/31 10:40:55;;;;;;;3.40;3.10;;;;;;;;;;12635987;23;20025;-72
2023/10/31 10:45:55;;;;;;;4.47;3.80;;;;;;;;;;12636564;23;20051;-71
2023/10/31 10:51:21;;;;;;;4.40;4.00;;;;;;;;;;12636744;23;20021;-72
2023/10/31 10:56:44;;;;;;;3.90;3.50;;;;;;;;;;12605390;23;20146;-71
2023/10/31 11:01:41;;;;;;;4.53;3.97;;;;;;;;;;12628654;23;20517;-71
2023/10/31 11:06:38;;;;;;;3.97;3.55;;;;;;;;;;12635807;23;20085;-72
2023/10/31 11:11:34;;;;;;;4.97;4.03;;;;;;;;;;12629683;23;20028;-71
2023/10/31 11:16:38;;;;;;;4.03;3.72;;;;;;;;;;12635465;23;20020;-71
2023/10/31 11:21:34;;;;;;;4.40;4.00;;;;;;;;;;12635519;23;20028;-71
2023/10/31 11:26:32;;;;;;;4.85;4.40;;;;;;;;;;12635538;23;20028;-71
2023/10/31 11:31:28;;;;;;;5.15;4.65;;;;;;;;;;12635087;23;20029;-71
2023/10/31 11:36:24;;;;;;;4.55;4.15;;;;;;;;;;12636045;23;20082;-72
2023/10/31 11:41:21;;;;;;;4.85;4.15;;;;;;;;;;12633304;23;20029;-72
2023/10/31 11:46:24;;;;;;;4.18;3.83;;;;;;;;;;12635617;23;20021;-72
2023/10/31 11:51:21;;;;;;;5.82;4.10;;;;;;;;;;12636346;23;20029;-72
2023/10/31 11:56:17;;;;;;;5.47;4.00;;;;;;;;;;12634459;23;20104;-72
2023/10/31 12:01:14;;;;;;;4.90;4.45;;;;;;;;;;12635388;23;20059;-72
2023/10/31 12:06:11;;;;;;;4.60;4.20;;;;;;;;;;12634265;23;20030;-72
2023/10/31 12:11:08;;;;;;;5.75;4.70;;;;;;;;;;12635526;23;20016;-71
2023/10/31 12:16:06;;;;;;;5.00;4.50;;;;;;;;;;12628797;23;20027;-71
2023/10/31 12:21:03;;;;;;;5.30;4.90;;;;;;;;;;12634875;23;20362;-71
2023/10/31 12:25:59;;;;;;;6.57;4.70;;;;;;;;;;12634578;23;20020;-72
2023/10/31 12:30:57;;;;;;;4.80;4.40;;;;;;;;;;12634903;23;20091;-72
2023/10/31 12:35:57;;;;;;;5.13;4.47;;;;;;;;;;12635260;23;20096;-72
2023/10/31 12:40:55;;;;;;;8.15;4.78;;;;;;;;;;12633513;23;20028;-72
2023/10/31 12:45:51;;;;;;;4.65;4.25;;;;;;;;;;12595552;23;20044;-72
2023/10/31 12:50:48;;;;;;;4.18;3.80;;;;;;;;;;12632737;23;20024;-73
2023/10/31 12:55:45;;;;;;;4.70;4.30;;;;;;;;;;12632104;23;20024;-72
2023/10/31 13:00:42;;;;;;;4.50;4.10;;;;;;;;;;12641712;23;20020;-73
2023/10/31 13:05:40;;;;;;;4.00;3.70;;;;;;;;;;12651587;23;20025;-73
2023/10/31 13:10:36;;;;;;;3.97;3.58;;;;;;;;;;12653583;23;20028;-73
2023/10/31 13:15:33;;;;;;;4.35;3.95;;;;;;;;;;12652783;23;20024;-73
2023/10/31 13:20:31;;;;;;;4.20;3.80;;;;;;;;;;12638043;23;20020;-73
2023/10/31 13:25:28;;;;;;;3.90;3.60;;;;;;;;;;12610942;23;20087;-73
2023/10/31 13:30:28;;;;;;;4.57;4.18;;;;;;;;;;12630178;23;20020;-73
2023/10/31 13:35:24;;;;;;;4.40;4.00;;;;;;;;;;12634841;23;20454;-73
2023/10/31 13:40:21;;;;;;;4.82;4.43;;;;;;;;;;12632933;23;20028;-72
2023/10/31 13:45:18;;;;;;;5.38;4.97;;;;;;;;;;12633592;23;20052;-73
2023/10/31 13:50:15;;;;;;;5.65;5.15;;;;;;;;;;12631128;23;20021;-72
2023/10/31 13:55:11;;;;;;;6.10;4.68;;;;;;;;;;12635954;23;20027;-72
2023/10/31 14:00:08;;;;;;;5.20;4.80;;;;;;;;;;12610421;23;20031;-72
2023/10/31 14:05:05;;;;;;;4.57;4.28;;;;;;;;;;12609549;23;20025;-73
2023/10/31 14:10:02;;;;;;;4.95;4.55;;;;;;;;;;12636511;23;20024;-73
2023/10/31 14:14:59;;;;;;;5.07;4.57;;;;;;;;;;12637524;23;20020;-72
2023/10/31 14:19:55;;;;;;;4.55;4.25;;;;;;;;;;12635905;23;20087;-73
2023/10/31 14:24:52;;;;;;;4.90;4.50;;;;;;;;;;12635046;23;20048;-73
2023/10/31 14:29:48;;;;;;;5.05;4.55;;;;;;;;;;12635402;23;20028;-73
2023/10/31 14:34:44;;;;;;;3.88;3.58;;;;;;;;;;12630462;23;20052;-74
2023/10/31 14:39:41;;;;;;;4.45;4.05;;;;;;;;;;12635143;23;20024;-73
2023/10/31 14:44:37;;;;;;;5.72;5.22;;;;;;;;;;12635716;23;20035;-74
2023/10/31 14:49:34;;;;;;;5.43;5.03;;;;;;;;;;12636120;23;20017;-73
2023/10/31 14:54:31;;;;;;;7.40;6.80;;;;;;;;;;12635294;23;20505;-73
2023/10/31 14:59:27;;;;;;;6.88;6.38;;;;;;;;;;12634935;23;20501;-73
2023/10/31 15:04:24;;;;;;;6.50;6.00;;;;;;;;;;12629292;23;20021;-72
2023/10/31 15:09:20;;;;;;;5.72;5.22;;;;;;;;;;12635169;23;20579;-72
2023/10/31 15:14:17;;;;;;;6.10;5.15;;;;;;;;;;12635246;23;20136;-72
2023/10/31 15:19:13;;;;;;;5.35;4.85;;;;;;;;;;12634205;23;20056;-72
2023/10/31 15:24:11;;;;;;;5.35;4.90;;;;;;;;;;12635017;23;20489;-72
2023/10/31 15:29:07;;;;;;;5.00;4.60;;;;;;;;;;12634401;23;20050;-75
2023/10/31 15:34:04;;;;;;;5.82;5.32;;;;;;;;;;12609109;23;20182;-73
2023/10/31 15:39:00;;;;;;;9.77;6.38;;;;;;;;;;12633719;23;20115;-74
2023/10/31 15:43:57;;;;;;;9.27;6.65;;;;;;;;;;12634181;23;20024;-74
2023/10/31 15:48:53;;;;;;;7.57;6.82;;;;;;;;;;12628203;23;20032;-71
2023/10/31 15:53:49;;;;;;;6.30;5.72;;;;;;;;;;12633823;23;20035;-72
2023/10/31 15:58:46;;;;;;;8.88;7.97;;;;;;;;;;12633476;23;20047;-73
2023/10/31 16:03:42;;;;;;;6.53;6.03;;;;;;;;;;12634498;23;20031;-74
2023/10/31 16:08:39;;;;;;;8.23;6.28;;;;;;;;;;12633782;23;20016;-73
2023/10/31 16:13:37;;;;;;;8.15;6.55;;;;;;;;;;12633200;23;20108;-73
2023/10/31 16:18:33;;;;;;;6.47;5.95;;;;;;;;;;12632002;23;20027;-73
2023/10/31 16:23:30;;;;;;;7.05;6.35;;;;;;;;;;12632713;23;20068;-74
2023/10/31 16:28:29;;;;;;;7.75;6.50;;;;;;;;;;12632325;23;20474;-74
2023/10/31 16:33:28;;;;;;;6.88;6.28;;;;;;;;;;12631383;23;20036;-74
2023/10/31 16:38:24;;;;;;;6.88;6.05;;;;;;;;;;12606982;23;20028;-74
2023/10/31 16:43:20;;;;;;;7.00;6.30;;;;;;;;;;12633461;23;20100;-74
2023/10/31 16:48:17;;;;;;;6.20;5.70;;;;;;;;;;12633244;23;20493;-74
2023/10/31 16:53:13;;;;;;;6.32;5.70;;;;;;;;;;12625489;23;20032;-75
2023/10/31 16:58:10;;;;;;;8.40;6.28;;;;;;;;;;12633011;23;20135;-74
2023/10/31 17:03:11;;;;;;;9.38;6.65;;;;;;;;;;12631555;23;20028;-75
2023/10/31 17:08:08;;;;;;;10.32;5.95;;;;;;;;;;12597980;23;20024;-73
2023/10/31 17:47:03;;;;;;;7.18;6.47;;;;;;;;;;12628535;23;20399;-75
2023/10/31 17:52:32;;;;;;;8.63;7.07;;;;;;;;;;12441924;23;20018;-74
2023/10/31 17:57:36;;;;;;;7.18;6.47;;;;;;;;;;12590615;23;20029;-75
2023/10/31 18:03:00;;;;;;;11.32;6.20;;;;;;;;;;12584638;23;20021;-74
2023/10/31 18:08:22;;;;;;;7.07;6.43;;;;;;;;;;12524407;23;20353;-74
2023/10/31 18:14:00;;;;;;;7.55;6.85;;;;;;;;;;12571182;23;20052;-74
2023/10/31 18:19:15;;;;;;;7.00;6.40;;;;;;;;;;12597121;23;20032;-75
2023/10/31 18:24:21;;;;;;;7.07;6.13;;;;;;;;;;12585207;23;20044;-73
2023/10/31 18:29:20;;;;;;;6.70;6.00;;;;;;;;;;12626430;23;20095;-74
2023/10/31 18:34:48;;;;;;;6.38;5.53;;;;;;;;;;12599093;23;20370;-75
2023/10/31 18:50:52;;;;;;;7.03;6.35;;;;;;;;;;12580197;23;20736;-74
2023/10/31 18:56:30;;;;;;;7.75;6.28;;;;;;;;;;12517879;23;20017;-75
2023/10/31 19:37:44;;;;;;;;;;;;;;;;;;;;;
2023/10/31 20:06:06;;;;;;;12.02;7.50;;;;;;;;;;12665742;22;20339;-74
2023/10/31 20:11:37;;;;;;;8.43;7.05;;;;;;;;;;12691265;23;20020;-75
2023/10/31 20:35:38;;;;;;;12.93;8.23;;;;;;;;;;12251216;23;20015;-74
2023/10/31 21:15:20;;;;;;;12.52;9.07;;;;;;;;;;12618228;23;20048;-72
2023/10/31 21:20:17;;;;;;;12.05;9.27;;;;;;;;;;12631477;23;20112;-71
2023/10/31 21:25:14;;;;;;;12.85;8.90;;;;;;;;;;12600135;23;20020;-68
2023/10/31 21:30:10;;;;;;;11.23;8.95;;;;;;;;;;12631212;23;20459;-70
2023/10/31 21:35:07;;;;;;;9.35;8.45;;;;;;;;;;12632874;23;20091;-69
2023/10/31 21:40:04;;;;;;;11.10;8.32;;;;;;;;;;12633797;23;20382;-69
2023/10/31 21:45:01;;;;;;;13.38;9.48;;;;;;;;;;12633191;23;20021;-69
2023/10/31 21:49:57;;;;;;;10.75;9.65;;;;;;;;;;12633054;23;20021;-69
2023/10/31 21:54:53;;;;;;;12.80;9.93;;;;;;;;;;12633080;23;20458;-69
2023/10/31 21:59:50;;;;;;;14.50;10.20;;;;;;;;;;12632702;23;20032;-69
2023/10/31 22:04:46;;;;;;;15.30;10.80;;;;;;;;;;12634872;23;20021;-69
2023/10/31 22:09:43;;;;;;;13.27;10.68;;;;;;;;;;12637720;23;20054;-69
2023/10/31 22:14:40;;;;;;;13.40;11.30;;;;;;;;;;12611318;23;20025;-69
2023/10/31 22:19:36;;;;;;;16.13;11.95;;;;;;;;;;12631879;23;20024;-69
2023/10/31 22:24:32;;;;;;;13.73;11.02;;;;;;;;;;12636969;23;20087;-68
2023/10/31 22:29:28;;;;;;;13.73;11.52;;;;;;;;;;12631669;23;20072;-71
2023/10/31 22:34:25;;;;;;;19.42;12.50;;;;;;;;;;12600977;23;20063;-71
2023/10/31 22:39:21;;;;;;;14.27;12.35;;;;;;;;;;12636221;23;20025;-71
2023/10/31 22:44:17;;;;;;;13.38;11.98;;;;;;;;;;12636734;23;20031;-72
2023/10/31 22:49:14;;;;;;;12.35;11.13;;;;;;;;;;12610371;23;20401;-71
2023/10/31 22:54:11;;;;;;;16.95;11.63;;;;;;;;;;12637316;23;20049;-69
2023/10/31 22:59:07;;;;;;;15.13;11.38;;;;;;;;;;12637241;23;20048;-69
2023/10/31 23:04:04;;;;;;;11.27;9.88;;;;;;;;;;12637001;23;20025;-70
2023/10/31 23:09:00;;;;;;;12.82;10.40;;;;;;;;;;12636698;23;20229;-69
2023/10/31 23:14:06;;;;;;;12.35;10.48;;;;;;;;;;12636333;23;20032;-69
2023/10/31 23:19:03;;;;;;;13.05;9.98;;;;;;;;;;12631294;23;20033;-70
2023/10/31 23:24:00;;;;;;;11.43;10.23;;;;;;;;;;12636713;23;20078;-70
2023/10/31 23:28:57;;;;;;;11.48;9.98;;;;;;;;;;12630498;23;20048;-71
2023/10/31 23:33:54;;;;;;;12.93;9.25;;;;;;;;;;12635323;23;20028;-71
2023/10/31 23:38:50;;;;;;;11.65;9.18;;;;;;;;;;12635946;23;20090;-71
2023/10/31 23:43:47;;;;;;;12.02;9.18;;;;;;;;;;12635274;23;20028;-71
2023/10/31 23:48:43;;;;;;;10.77;9.75;;;;;;;;;;12635787;23;20110;-70
2023/10/31 23:53:39;;;;;;;11.98;9.63;;;;;;;;;;12636054;23;20036;-70
2023/10/31 23:58:36;;;;;;;9.40;8.30;;;;;;;;;;12635584;23;20098;-68
